Terminal Aerodrome Forecast
Issued by NWS

Home | Current Version | Previous Version | Text Only | Print | Product List | Glossary On
Versions: 1 2 3 4 5 6 7 8 9 10 11 12 13 14 15 16
813
FTUS41 KPBZ 201132
TAFBVI
TAF
KBVI 201132Z 2012/2112 00000KT 1/4SM FG VV001
     FM201330 00000KT 1SM BR SCT002
     FM201500 VRB03KT P6SM SKC
      AMD NOT SKED=

USA.gov is the U.S. government's official web portal to all federal, state and local government web resources and services.